sensor_id;sensor_type;location;lat;lon;timestamp;pressure;altitude;pressure_sealevel;temperature;humidity
27864;BME280;15980;51.092;13.916;2023-12-20T00:03:11;98219.84;;;5.86;100.00
27864;BME280;15980;51.092;13.916;2023-12-20T00:13:11;98211.69;;;5.77;100.00
27864;BME280;15980;51.092;13.916;2023-12-20T00:23:12;98192.31;;;5.61;100.00
27864;BME280;15980;51.092;13.916;2023-12-20T00:33:12;98192.16;;;5.66;100.00
27864;BME280;15980;51.092;13.916;2023-12-20T00:43:12;98190.88;;;5.47;100.00
27864;BME280;15980;51.092;13.916;2023-12-20T00:53:13;98201.53;;;5.17;100.00
27864;BME280;15980;51.092;13.916;2023-12-20T01:03:13;98186.13;;;4.95;100.00
27864;BME280;15980;51.092;13.916;2023-12-20T01:13:13;98170.00;;;5.08;100.00
27864;BME280;15980;51.092;13.916;2023-12-20T01:23:14;98155.56;;;4.90;100.00
27864;BME280;15980;51.092;13.916;2023-12-20T01:33:14;98146.25;;;4.73;100.00
27864;BME280;15980;51.092;13.916;2023-12-20T01:43:14;98149.19;;;4.86;100.00
27864;BME280;15980;51.092;13.916;2023-12-20T01:53:15;98145.34;;;4.87;100.00
27864;BME280;15980;51.092;13.916;2023-12-20T02:03:16;98136.38;;;4.78;100.00
27864;BME280;15980;51.092;13.916;2023-12-20T02:13:17;98143.03;;;4.71;100.00
27864;BME280;15980;51.092;13.916;2023-12-20T02:23:17;98116.66;;;4.72;100.00
27864;BME280;15980;51.092;13.916;2023-12-20T02:33:17;98113.59;;;4.65;100.00
27864;BME280;15980;51.092;13.916;2023-12-20T02:43:17;98112.63;;;4.61;100.00
27864;BME280;15980;51.092;13.916;2023-12-20T02:53:18;98109.75;;;4.57;100.00
27864;BME280;15980;51.092;13.916;2023-12-20T03:03:18;98094.72;;;4.51;100.00
27864;BME280;15980;51.092;13.916;2023-12-20T03:13:19;98106.09;;;4.62;100.00
27864;BME280;15980;51.092;13.916;2023-12-20T03:23:19;98093.78;;;4.56;100.00
27864;BME280;15980;51.092;13.916;2023-12-20T03:33:19;98075.25;;;4.58;100.00
27864;BME280;15980;51.092;13.916;2023-12-20T03:43:19;98069.16;;;4.61;100.00
27864;BME280;15980;51.092;13.916;2023-12-20T03:53:20;98072.16;;;4.42;100.00
27864;BME280;15980;51.092;13.916;2023-12-20T04:03:20;98069.50;;;4.59;100.00
27864;BME280;15980;51.092;13.916;2023-12-20T04:13:20;98074.44;;;4.57;100.00
27864;BME280;15980;51.092;13.916;2023-12-20T04:23:21;98071.25;;;4.55;100.00
27864;BME280;15980;51.092;13.916;2023-12-20T04:33:21;98072.19;;;4.59;100.00
27864;BME280;15980;51.092;13.916;2023-12-20T04:43:21;98080.50;;;4.54;100.00
27864;BME280;15980;51.092;13.916;2023-12-20T04:53:21;98073.66;;;4.65;100.00
27864;BME280;15980;51.092;13.916;2023-12-20T05:03:22;98081.31;;;4.63;100.00
27864;BME280;15980;51.092;13.916;2023-12-20T05:13:22;98073.16;;;4.63;100.00
27864;BME280;15980;51.092;13.916;2023-12-20T05:23:22;98071.88;;;4.52;100.00
27864;BME280;15980;51.092;13.916;2023-12-20T05:33:23;98095.88;;;4.76;100.00
27864;BME280;15980;51.092;13.916;2023-12-20T05:43:23;98107.34;;;4.56;100.00
27864;BME280;15980;51.092;13.916;2023-12-20T05:53:23;98113.75;;;4.60;100.00
27864;BME280;15980;51.092;13.916;2023-12-20T06:03:23;98107.72;;;4.71;100.00
27864;BME280;15980;51.092;13.916;2023-12-20T06:13:24;98127.53;;;4.72;100.00
27864;BME280;15980;51.092;13.916;2023-12-20T06:23:24;98135.19;;;4.61;100.00
27864;BME280;15980;51.092;13.916;2023-12-20T06:33:24;98122.16;;;4.81;100.00
27864;BME280;15980;51.092;13.916;2023-12-20T06:43:25;98143.53;;;4.73;100.00
27864;BME280;15980;51.092;13.916;2023-12-20T06:53:25;98153.91;;;4.71;100.00
27864;BME280;15980;51.092;13.916;2023-12-20T07:03:25;98167.97;;;4.65;100.00
27864;BME280;15980;51.092;13.916;2023-12-20T07:13:25;98181.63;;;4.43;100.00
27864;BME280;15980;51.092;13.916;2023-12-20T07:23:26;98180.38;;;4.49;100.00
27864;BME280;15980;51.092;13.916;2023-12-20T07:33:26;98176.31;;;4.37;100.00
27864;BME280;15980;51.092;13.916;2023-12-20T07:43:26;98167.63;;;4.58;100.00
27864;BME280;15980;51.092;13.916;2023-12-20T07:53:26;98174.22;;;4.74;100.00
27864;BME280;15980;51.092;13.916;2023-12-20T08:03:27;98164.69;;;4.85;100.00
27864;BME280;15980;51.092;13.916;2023-12-20T08:13:27;98173.91;;;4.76;100.00
27864;BME280;15980;51.092;13.916;2023-12-20T08:23:28;98184.34;;;4.82;100.00
27864;BME280;15980;51.092;13.916;2023-12-20T08:33:28;98189.66;;;4.96;100.00
27864;BME280;15980;51.092;13.916;2023-12-20T08:43:28;98182.06;;;5.32;100.00
27864;BME280;15980;51.092;13.916;2023-12-20T08:53:28;98179.97;;;5.38;98.71
27864;BME280;15980;51.092;13.916;2023-12-20T09:03:29;98181.25;;;5.49;97.39
27864;BME280;15980;51.092;13.916;2023-12-20T09:13:29;98184.72;;;5.15;95.21
27864;BME280;15980;51.092;13.916;2023-12-20T09:23:29;98186.72;;;5.66;93.15
27864;BME280;15980;51.092;13.916;2023-12-20T09:33:30;98184.31;;;5.65;90.45
27864;BME280;15980;51.092;13.916;2023-12-20T09:43:30;98170.38;;;5.49;89.74
27864;BME280;15980;51.092;13.916;2023-12-20T09:53:32;98173.56;;;5.51;88.51
27864;BME280;15980;51.092;13.916;2023-12-20T10:03:36;98148.94;;;5.91;87.60
27864;BME280;15980;51.092;13.916;2023-12-20T10:13:40;98150.19;;;6.02;85.94
27864;BME280;15980;51.092;13.916;2023-12-20T10:23:40;98136.59;;;5.93;85.08
27864;BME280;15980;51.092;13.916;2023-12-20T10:33:41;98126.59;;;6.23;84.32
27864;BME280;15980;51.092;13.916;2023-12-20T10:43:41;98133.94;;;6.32;81.80
27864;BME280;15980;51.092;13.916;2023-12-20T10:53:42;98131.84;;;6.37;81.18
27864;BME280;15980;51.092;13.916;2023-12-20T11:03:46;98108.91;;;6.38;79.00
27864;BME280;15980;51.092;13.916;2023-12-20T11:13:55;98129.88;;;6.46;78.80
27864;BME280;15980;51.092;13.916;2023-12-20T11:23:57;98110.41;;;6.27;77.93
27864;BME280;15980;51.092;13.916;2023-12-20T11:34:12;98103.38;;;6.17;77.50
27864;BME280;15980;51.092;13.916;2023-12-20T11:44:13;98094.88;;;6.19;78.64
27864;BME280;15980;51.092;13.916;2023-12-20T11:54:15;98079.38;;;6.02;77.13
27864;BME280;15980;51.092;13.916;2023-12-20T12:04:16;98076.47;;;6.54;75.86
27864;BME280;15980;51.092;13.916;2023-12-20T12:14:16;98051.44;;;6.22;76.26
27864;BME280;15980;51.092;13.916;2023-12-20T12:24:20;98041.41;;;6.44;75.26
27864;BME280;15980;51.092;13.916;2023-12-20T12:34:21;98016.06;;;6.73;73.65
27864;BME280;15980;51.092;13.916;2023-12-20T12:44:21;98032.66;;;6.59;72.32
27864;BME280;15980;51.092;13.916;2023-12-20T12:54:21;98007.81;;;6.81;72.74
27864;BME280;15980;51.092;13.916;2023-12-20T13:04:22;97988.97;;;6.88;72.30
27864;BME280;15980;51.092;13.916;2023-12-20T13:14:22;97974.16;;;6.77;72.53
27864;BME280;15980;51.092;13.916;2023-12-20T13:24:22;97960.53;;;6.77;72.58
27864;BME280;15980;51.092;13.916;2023-12-20T13:34:23;97940.97;;;6.75;72.90
27864;BME280;15980;51.092;13.916;2023-12-20T13:44:23;97931.81;;;6.80;72.57
27864;BME280;15980;51.092;13.916;2023-12-20T13:54:24;97918.28;;;6.83;72.00
27864;BME280;15980;51.092;13.916;2023-12-20T14:04:24;97912.41;;;6.60;71.31
27864;BME280;15980;51.092;13.916;2023-12-20T14:14:24;97909.00;;;6.64;71.98
27864;BME280;15980;51.092;13.916;2023-12-20T14:24:25;97907.06;;;6.43;72.99
27864;BME280;15980;51.092;13.916;2023-12-20T14:34:25;97911.72;;;6.22;73.18
27864;BME280;15980;51.092;13.916;2023-12-20T14:44:25;97911.94;;;6.17;72.88
27864;BME280;15980;51.092;13.916;2023-12-20T14:54:25;97903.69;;;6.25;73.01
27864;BME280;15980;51.092;13.916;2023-12-20T15:04:26;97917.38;;;6.38;73.22
27864;BME280;15980;51.092;13.916;2023-12-20T15:14:26;97907.00;;;6.31;72.62
27864;BME280;15980;51.092;13.916;2023-12-20T15:24:27;97902.75;;;6.21;73.34
27864;BME280;15980;51.092;13.916;2023-12-20T15:34:27;97911.59;;;6.18;73.30
27864;BME280;15980;51.092;13.916;2023-12-20T15:44:27;97920.88;;;6.17;73.57
27864;BME280;15980;51.092;13.916;2023-12-20T15:54:27;97923.63;;;6.17;73.81
27864;BME280;15980;51.092;13.916;2023-12-20T16:04:28;97927.47;;;6.16;73.96
27864;BME280;15980;51.092;13.916;2023-12-20T16:14:28;97913.25;;;6.11;73.89
27864;BME280;15980;51.092;13.916;2023-12-20T16:24:28;97908.59;;;6.11;75.21
27864;BME280;15980;51.092;13.916;2023-12-20T16:34:29;97919.97;;;6.13;75.48
27864;BME280;15980;51.092;13.916;2023-12-20T16:44:29;97933.72;;;6.17;75.71
27864;BME280;15980;51.092;13.916;2023-12-20T16:54:29;97928.88;;;6.22;76.28
27864;BME280;15980;51.092;13.916;2023-12-20T17:04:29;97918.78;;;5.85;79.15
27864;BME280;15980;51.092;13.916;2023-12-20T17:14:30;97916.34;;;5.54;83.45
27864;BME280;15980;51.092;13.916;2023-12-20T17:24:30;97944.44;;;5.20;87.68
27864;BME280;15980;51.092;13.916;2023-12-20T17:34:32;97951.03;;;5.10;92.43
27864;BME280;15980;51.092;13.916;2023-12-20T17:44:32;97962.41;;;4.95;94.56
27864;BME280;15980;51.092;13.916;2023-12-20T17:54:33;97960.34;;;4.92;95.12
27864;BME280;15980;51.092;13.916;2023-12-20T18:04:33;97950.91;;;4.89;96.55
27864;BME280;15980;51.092;13.916;2023-12-20T18:14:33;97958.88;;;4.68;97.44
27864;BME280;15980;51.092;13.916;2023-12-20T18:24:34;97977.56;;;4.35;98.77
27864;BME280;15980;51.092;13.916;2023-12-20T18:34:34;97967.69;;;4.57;99.70
27864;BME280;15980;51.092;13.916;2023-12-20T18:44:34;97973.13;;;4.48;100.00
27864;BME280;15980;51.092;13.916;2023-12-20T18:54:35;97963.06;;;4.57;100.00
27864;BME280;15980;51.092;13.916;2023-12-20T19:04:35;97958.72;;;4.39;100.00
27864;BME280;15980;51.092;13.916;2023-12-20T19:14:35;97965.28;;;4.64;100.00
27864;BME280;15980;51.092;13.916;2023-12-20T19:24:35;97960.16;;;4.45;100.00
27864;BME280;15980;51.092;13.916;2023-12-20T19:34:36;97945.47;;;4.37;100.00
27864;BME280;15980;51.092;13.916;2023-12-20T19:44:36;97931.41;;;4.35;100.00
27864;BME280;15980;51.092;13.916;2023-12-20T19:54:36;97927.41;;;4.41;100.00
27864;BME280;15980;51.092;13.916;2023-12-20T20:04:37;97929.97;;;4.55;100.00
27864;BME280;15980;51.092;13.916;2023-12-20T20:14:37;97914.47;;;4.56;100.00
27864;BME280;15980;51.092;13.916;2023-12-20T20:24:37;97898.47;;;4.63;100.00
27864;BME280;15980;51.092;13.916;2023-12-20T20:34:37;97880.59;;;4.62;100.00
27864;BME280;15980;51.092;13.916;2023-12-20T20:44:38;97872.75;;;4.78;100.00
27864;BME280;15980;51.092;13.916;2023-12-20T20:54:38;97866.34;;;4.82;100.00
27864;BME280;15980;51.092;13.916;2023-12-20T21:04:38;97859.28;;;4.90;99.95
27864;BME280;15980;51.092;13.916;2023-12-20T21:14:39;97852.41;;;4.92;98.02
27864;BME280;15980;51.092;13.916;2023-12-20T21:24:39;97815.28;;;4.96;96.60
27864;BME280;15980;51.092;13.916;2023-12-20T21:34:39;97804.25;;;5.01;95.61
27864;BME280;15980;51.092;13.916;2023-12-20T21:44:39;97778.59;;;5.11;95.10
27864;BME280;15980;51.092;13.916;2023-12-20T21:54:40;97767.88;;;5.15;93.70
27864;BME280;15980;51.092;13.916;2023-12-20T22:04:40;97748.81;;;5.23;92.58
27864;BME280;15980;51.092;13.916;2023-12-20T22:14:40;97728.94;;;5.31;91.15
27864;BME280;15980;51.092;13.916;2023-12-20T22:24:40;97718.84;;;5.32;89.18
27864;BME280;15980;51.092;13.916;2023-12-20T22:34:41;97716.06;;;5.41;88.14
27864;BME280;15980;51.092;13.916;2023-12-20T22:44:41;97689.78;;;5.45;87.85
27864;BME280;15980;51.092;13.916;2023-12-20T22:54:41;97684.03;;;5.46;87.90
27864;BME280;15980;51.092;13.916;2023-12-20T23:04:42;97654.09;;;5.46;88.51
27864;BME280;15980;51.092;13.916;2023-12-20T23:14:42;97636.91;;;5.54;88.28
27864;BME280;15980;51.092;13.916;2023-12-20T23:24:42;97606.44;;;5.61;87.31
27864;BME280;15980;51.092;13.916;2023-12-20T23:34:42;97601.31;;;5.59;87.14
27864;BME280;15980;51.092;13.916;2023-12-20T23:44:43;97592.22;;;5.76;86.64
27864;BME280;15980;51.092;13.916;2023-12-20T23:54:43;97563.06;;;5.77;87.31
